• Join FlightAware (Why Join?)
  • Login
  • US Flag 
08:05AM EDT


 

Airport Tracker/Info


-or-


 

Live Flight TrackerFlight Track Log ✈ SWA2182 ✈ 25-Apr-2013 ✈ KSMF - KSAN

Flight Track Log - Related Links

Times and Time Zones

All times are in EDT time to prevent confusion due to time zone crossing. See the SWA2182 flight status page for this flight to view local times or setup timezone preferences in your user account.

Time Position Orientation Groundspeed Altitude Reporting Facility
EDT Latitude Longitude Course Direction KTS MPH feet Rate Location/Type
09:10AM 38.6667 -121.6000 130° Southeast 152 175 1,500  Level Northern Cal TRACON
09:11AM 38.6333 -121.5500 130° Southeast 215 247 3,900 2,880 Climbing Northern Cal TRACON
09:13AM 38.5400 -121.3550 121° Southeast 285 328 11,200 3,120 Climbing Oakland Center
09:14AM 38.4914 -121.2503 121° Southeast 341 392 14,600 3,240 Climbing Oakland Center
09:15AM 38.4467 -121.1494 119° Southeast 358 412 17,800 3,420 Climbing Oakland Center
09:16AM 38.3839 -121.0117 120° Southeast 375 432 21,500 3,120 Climbing Oakland Center
09:17AM 38.2883 -120.9344 148° Southeast 408 470 24,200 2,460 Climbing Oakland Center
09:18AM 38.1811 -120.8678 154° Southeast 425 489 26,500 2,160 Climbing Oakland Center
09:19AM 38.0694 -120.7972 154° Southeast 442 509 28,600 1,980 Climbing Oakland Center
09:20AM 37.9550 -120.7278 154° Southeast 453 521 30,500 1,800 Climbing Oakland Center
09:21AM 37.8364 -120.6578 155° Southeast 465 535 32,300 1,860 Climbing Oakland Center
09:22AM 37.7192 -120.5867 154° Southeast 466 536 34,300 1,740 Climbing Oakland Center
09:23AM 37.6011 -120.5161 155° Southeast 466 536 35,900 1,680 Climbing Oakland Center
09:24AM 37.4831 -120.4464 155° Southeast 467 537 37,700 1,500 Climbing Oakland Center
09:25AM 37.3678 -120.3769 154° Southeast 461 531 39,000 600 Climbing Oakland Center
09:26AM 37.2472 -120.3108 156° South 467 537 39,000  Level Oakland Center
09:27AM 37.1314 -120.2417 155° Southeast 457 526 39,000  Level Oakland Center
09:28AM 37.0150 -120.1731 155° Southeast 459 528 39,000  Level Oakland Center
09:29AM 36.8994 -120.1031 154° Southeast 458 527 39,000  Level Oakland Center
09:30AM 36.7839 -120.0350 155° Southeast 457 526 39,000  Level Oakland Center
09:31AM 36.6681 -119.9664 155° Southeast 458 527 39,000  Level Oakland Center
09:32AM 36.5533 -119.8986 155° Southeast 456 525 39,000  Level Oakland Center
09:33AM 36.4383 -119.8311 155° Southeast 456 525 39,000  Level Oakland Center
09:34AM 36.3233 -119.7650 155° Southeast 455 524 39,000  Level Oakland Center
09:35AM 36.2094 -119.6986 155° Southeast 452 520 39,000  Level Oakland Center
09:36AM 36.0953 -119.6333 155° Southeast 450 518 39,000  Level Oakland Center
09:37AM 35.9814 -119.5706 156° South 448 516 39,000  Level Oakland Center
09:38AM 35.8686 -119.5081 156° South 443 510 39,000  Level Oakland Center
09:39AM 35.7553 -119.4428 155° Southeast 446 513 39,000  Level Oakland Center
09:40AM 35.6364 -119.3753 155° Southeast 460 529 39,000  Level Oakland Center
09:41AM 35.5914 -119.3492 155° Southeast 457 526 39,000  Level Los Angeles Center
09:42AM 35.4742 -119.2831 155° Southeast 459 528 39,000  Level Los Angeles Center
09:43AM 35.2622 -119.1650 156° South 463 533 39,000  Level Oakland Center
09:44AM 35.2161 -119.1381 154° Southeast 464 534 39,000  Level Los Angeles Center
09:45AM 35.0972 -119.0725 156° South 467 537 39,000  Level Los Angeles Center
09:46AM 34.9789 -119.0061 155° Southeast 468 539 39,000  Level Los Angeles Center
09:47AM 34.8708 -118.9458 155° Southeast 467 537 39,000  Level Los Angeles Center
09:48AM 34.7522 -118.8811 156° South 467 537 39,000  Level Los Angeles Center
09:49AM 34.6136 -118.8042 155° Southeast 458 527 39,000  Level Los Angeles Center
09:50AM 34.4972 -118.7411 156° South 458 527 39,000  Level Los Angeles Center
09:51AM 34.3903 -118.6542 146° Southeast 463 533 39,000  Level Los Angeles Center
09:52AM 34.2875 -118.5603 143° Southeast 462 532 39,000  Level Los Angeles Center
09:53AM 34.1833 -118.4669 143° Southeast 465 535 39,000  Level Los Angeles Center
09:54AM 34.0800 -118.3739 143° Southeast 464 534 39,000 -1,020 Level Los Angeles Center
09:55AM 33.9750 -118.2794 143° Southeast 467 537 37,000 -2,340 Descending Los Angeles Center
09:56AM 33.8889 -118.2028 144° Southeast 470 541 34,300 -3,420 Descending Los Angeles Center
09:57AM 33.7553 -118.0844 144° Southeast 487 560 30,100 -3,840 Descending Los Angeles Center
09:58AM 33.6472 -117.9886 144° Southeast 480 552 26,500 -2,880 Descending Los Angeles Center
09:59AM 33.5436 -117.8972 144° Southeast 462 532 24,200 -1,260 Descending Los Angeles Center
10:00AM 33.4283 -117.7903 142° Southeast 433 498 24,000 -1,440 Descending Los Angeles Center
10:01AM 33.3442 -117.6853 134° Southeast 436 502 21,300 -3,000 Descending Los Angeles Center
10:02AM 33.2667 -117.5833 132° Southeast 427 491 18,300 -3,060 Descending Southern California TRACON
10:03AM 33.1833 -117.5167 146° Southeast 406 467 15,800 -2,280 Descending Southern California TRACON
10:04AM 33.1000 -117.4333 140° Southeast 368 423 14,000 -2,280 Descending Southern California TRACON
10:05AM 33.0167 -117.3833 153° Southeast 355 409 11,300 -2,160 Descending Southern California TRACON
10:06AM 32.9500 -117.3167 140° Southeast 329 379 10,000 -1,320 Descending Southern California TRACON
10:07AM 32.8833 -117.2667 148° Southeast 290 334 8,700 -1,320 Descending Southern California TRACON
10:07AM 32.8533 -117.2414 145° Southeast 291 335 8,100 -1,500 Descending Los Angeles Center
10:08AM 32.8025 -117.1725 131° Southeast 291 335 6,700 -1,020 Descending Los Angeles Center
10:10AM 32.7861 -117.0953 104° East 273 314 6,000 -660 Descending Los Angeles Center
10:10AM 32.7833 -117.0500 94° East 245 282 5,800 -720 Descending Southern California TRACON
10:11AM 32.7667 -116.9833 107° East 236 272 5,000 -420 Descending Southern California TRACON
10:12AM 32.7167 -116.9667 164° South 199 229 5,000 -540 Level Southern California TRACON
10:13AM 32.7000 -117.0167 248° West 180 207 4,000 -1,320 Descending Southern California TRACON
10:14AM 32.7000 -117.0667 270° West 171 197 2,500 -1,500 Descending Southern California TRACON
10:15AM 32.7167 -117.1167 292° West 161 185 1,400 -1,080 Descending Southern California TRACON
10:16AM 32.7272 -117.1603 286° West 156 180 400 -960 Descending Los Angeles Center
10:19AM 32.7333 -117.1833 275° West  Level FlightAware Approximate